الصفحة الرئيسية
METAR-TAF:

METAR-TAF

مطار :

مطار ليبرفيل الدولي

ليبرفيل, الغابون

دائرة عرض: 00-27N, خط طول: 009-25E, ارتفاع: 12 متر

مراقبة الطقس الحالي

تاريخ ووقت الإصدار 23 دقيقة قبل الساعة 14:00UTC
ريح 8 عقدة من الجنوب/الجنوب الغربي, الاتجاه يتراوح بين الجنوب و الغرب
درجة الحرارة 29°درجة مئوية
الرطوبة 74%
ضغط 1011 hPa
الرؤية 10 كم أو أكثر
غيوم قليلة على ارتفاع 1200 قدم
غيوم متفرقة على ارتفاع 4200 قدم

METAR: FOOL 141400Z 21008KT 180V260 9999 FEW012 FW018TCU SCT042 29/24 Q1011 NOSIG

زمن: 15:23 (14:23 UTC)

توقعات

تاريخ ووقت الإصدار 3ساعات و 23 دقيقة قبل الساعة 11:00UTC
التوقعات صالحة من14 الساعة 12 UTC إلى 15 الساعة 18 UTC
ريح 8 عقدة من الجنوب/الجنوب الغربي
الرؤية: 8000 متر
غيوم متفرقة على ارتفاع 1000 قدم
غيوم قليلة على ارتفاع 1800 قدم, مزنة ركامية.
غيوم مفككة على ارتفاع 3300 قدم
نظرية الاحتمالات 30% :
مؤقت
من 14 الساعة 15 UTC إلى 14 الساعة 21 UTC
الرؤية: 4000 متر

TAF: FOOL 141100Z 1412/1518 20008KT 8000 SCT010 FEW018CB BKN033 PROB30 TEMPO 1415/1421 4000 TSA

أرصاد الطقس والتوقعات من أكثر من 4000 مطار (تقارير الطقس للمطار METAR والتنبؤ بالطقس بالمطارTAF).

المحطات المتاحة هي النقط الصفراء والحمراء على الخريطة.

حرك المؤشر فوق النقطة لمعرفة اسم المحطة.

ثم انقر لمعرفة أرصاد وتوقعات الطقس.

لتغيير الخارطة: اضغط على الأزرار الخضراء مع رمز الصليب الأسود للتكبير. على الزر الأخضر مع شرطة للتصغير، أو على الأسهم الخضراء للخرائط المجاورة.


METAR-TAF: